createdAt,value
2022-12-15T00:00:11.725Z,1002.98
2022-12-15T00:01:18.928Z,1003.00
2022-12-15T00:02:22.252Z,1003.01
2022-12-15T00:03:26.324Z,1003.02
2022-12-15T00:04:33.239Z,1003.02
2022-12-15T00:05:36.554Z,1003.00
2022-12-15T00:06:46.897Z,1002.99
2022-12-15T00:07:49.481Z,1002.98
2022-12-15T00:08:56.579Z,1002.96
2022-12-15T00:10:02.773Z,1002.96
2022-12-15T00:11:08.852Z,1002.94
2022-12-15T00:12:14.988Z,1002.95
2022-12-15T00:13:18.123Z,1002.95
2022-12-15T00:14:22.118Z,1002.97
2022-12-15T00:15:29.249Z,1002.95
2022-12-15T00:16:32.938Z,1002.94
2022-12-15T00:17:36.657Z,1002.94
2022-12-15T00:18:40.745Z,1002.95
2022-12-15T00:19:47.968Z,1002.92
2022-12-15T00:20:51.143Z,1002.86
2022-12-15T00:21:58.290Z,1002.85
2022-12-15T00:23:01.526Z,1002.83
2022-12-15T00:24:05.455Z,1002.82
2022-12-15T00:25:09.568Z,1002.80
2022-12-15T00:26:16.710Z,1002.79
2022-12-15T00:27:19.978Z,1002.77
2022-12-15T00:28:23.859Z,1002.78
2022-12-15T00:29:31.108Z,1002.80
2022-12-15T00:30:40.409Z,1002.78
2022-12-15T00:31:46.199Z,1002.81
2022-12-15T00:32:49.210Z,1002.82
2022-12-15T00:33:53.221Z,1002.85
2022-12-15T00:34:57.259Z,1002.82
2022-12-15T00:36:01.356Z,1002.84
2022-12-15T00:37:05.331Z,1002.82
2022-12-15T00:38:12.698Z,1002.81
2022-12-15T00:39:15.840Z,1002.82
2022-12-15T00:40:19.884Z,1002.81
2022-12-15T00:41:26.959Z,1002.81
2022-12-15T00:42:36.164Z,1002.82
2022-12-15T00:43:38.776Z,1002.83
2022-12-15T00:44:45.941Z,1002.79
2022-12-15T00:45:49.151Z,1002.77
2022-12-15T00:46:56.237Z,1002.77
2022-12-15T00:48:02.239Z,1002.79
2022-12-15T00:49:05.469Z,1002.79
2022-12-15T00:50:09.459Z,1002.80
2022-12-15T00:51:13.488Z,1002.81
2022-12-15T00:52:17.565Z,1002.82
2022-12-15T00:53:21.660Z,1002.84
2022-12-15T00:54:25.681Z,1002.84
2022-12-15T00:55:29.769Z,1002.84
2022-12-15T00:56:36.919Z,1002.88
2022-12-15T00:57:43.039Z,1002.88
2022-12-15T00:58:46.248Z,1002.87
2022-12-15T00:59:50.222Z,1002.87
2022-12-15T01:00:57.378Z,1002.88
2022-12-15T01:02:00.684Z,1002.90
2022-12-15T01:03:04.809Z,1002.89
2022-12-15T01:04:08.681Z,1002.88
2022-12-15T01:05:12.747Z,1002.87
2022-12-15T01:06:19.922Z,1002.89
2022-12-15T01:07:23.088Z,1002.88
2022-12-15T01:08:27.079Z,1002.88
2022-12-15T01:09:31.042Z,1002.87
2022-12-15T01:10:35.205Z,1002.90
2022-12-15T01:11:39.318Z,1002.96
2022-12-15T01:12:46.400Z,1002.92
2022-12-15T01:13:50.040Z,1002.89
2022-12-15T01:14:53.632Z,1002.91
2022-12-15T01:15:57.746Z,1002.88
2022-12-15T01:17:04.875Z,1002.90
2022-12-15T01:18:08.135Z,1002.91
2022-12-15T01:19:12.118Z,1002.90
2022-12-15T01:20:17.114Z,1002.91
2022-12-15T01:21:24.721Z,1002.89
2022-12-15T01:22:24.796Z,1002.87
2022-12-15T01:23:29.262Z,1002.81
2022-12-15T01:24:33.054Z,1002.77
2022-12-15T01:25:37.051Z,1002.76
2022-12-15T01:26:41.084Z,1002.74
2022-12-15T01:27:45.137Z,1002.75
2022-12-15T01:28:49.231Z,1002.72
2022-12-15T01:29:56.394Z,1002.73
2022-12-15T01:30:59.760Z,1002.72
2022-12-15T01:32:03.653Z,1002.76
2022-12-15T01:33:10.947Z,1002.78
2022-12-15T01:34:14.116Z,1002.77
2022-12-15T01:35:18.131Z,1002.80
2022-12-15T01:36:22.168Z,1002.84
2022-12-15T01:37:26.237Z,1002.88
2022-12-15T01:38:30.497Z,1002.85
2022-12-15T01:39:34.510Z,1002.81
2022-12-15T01:40:38.674Z,1002.81
2022-12-15T01:41:45.739Z,1002.85
2022-12-15T01:42:51.888Z,1002.87
2022-12-15T01:43:55.080Z,1002.91
2022-12-15T01:44:59.109Z,1002.94
2022-12-15T01:46:03.176Z,1002.93
2022-12-15T01:47:07.302Z,1002.93
2022-12-15T01:48:14.423Z,1002.94
2022-12-15T01:49:17.599Z,1002.92
2022-12-15T01:50:21.679Z,1002.93
2022-12-15T01:51:25.671Z,1002.95
2022-12-15T01:52:29.727Z,1002.94
2022-12-15T01:53:34.068Z,1002.95
2022-12-15T01:54:37.868Z,1002.96
2022-12-15T01:55:45.060Z,1002.94
2022-12-15T01:56:48.187Z,1002.93
2022-12-15T01:57:55.345Z,1002.95
2022-12-15T01:58:58.659Z,1003.00
2022-12-15T02:00:02.653Z,1003.00
2022-12-15T02:01:06.842Z,1002.98
2022-12-15T02:02:13.899Z,1002.93
2022-12-15T02:03:17.064Z,1002.92
2022-12-15T02:04:21.037Z,1002.88
2022-12-15T02:05:25.014Z,1002.89
2022-12-15T02:06:29.122Z,1002.88
2022-12-15T02:07:33.145Z,1002.87
2022-12-15T02:08:37.089Z,1002.85
2022-12-15T02:09:41.196Z,1002.88
2022-12-15T02:10:48.342Z,1002.89
2022-12-15T02:11:51.448Z,1002.89
2022-12-15T02:12:58.620Z,1002.91
2022-12-15T02:14:04.736Z,1002.91
2022-12-15T02:15:10.805Z,1002.93
2022-12-15T02:16:14.017Z,1002.91
2022-12-15T02:17:18.038Z,1002.84
2022-12-15T02:18:22.106Z,1002.83
2022-12-15T02:19:29.237Z,1002.82
2022-12-15T02:20:35.292Z,1002.86
2022-12-15T02:21:38.489Z,1002.89
2022-12-15T02:22:42.601Z,1002.89
2022-12-15T02:23:49.632Z,1002.89
2022-12-15T02:24:52.703Z,1002.86
2022-12-15T02:25:59.810Z,1002.83
2022-12-15T02:27:02.905Z,1002.80
2022-12-15T02:28:06.953Z,1002.81
2022-12-15T02:29:10.947Z,1002.80
2022-12-15T02:30:18.101Z,1002.74
2022-12-15T02:31:24.247Z,1002.72
2022-12-15T02:32:30.393Z,1002.70
2022-12-15T02:33:36.622Z,1002.72
2022-12-15T02:34:42.764Z,1002.73
2022-12-15T02:35:51.992Z,1002.76
2022-12-15T02:36:54.634Z,1002.73
2022-12-15T02:37:58.598Z,1002.73
2022-12-15T02:39:05.882Z,1002.73
2022-12-15T02:40:11.969Z,1002.70
2022-12-15T02:41:15.138Z,1002.67
2022-12-15T02:42:19.133Z,1002.69
2022-12-15T02:43:23.191Z,1002.71
2022-12-15T02:44:27.277Z,1002.74
2022-12-15T02:45:31.302Z,1002.75
2022-12-15T02:46:35.301Z,1002.72
2022-12-15T02:47:39.366Z,1002.68
2022-12-15T02:48:43.405Z,1002.69
2022-12-15T02:49:49.833Z,1002.69
2022-12-15T02:50:51.489Z,1002.65
2022-12-15T02:51:55.387Z,1002.68
2022-12-15T02:52:59.569Z,1002.66
2022-12-15T02:54:06.700Z,1002.70
2022-12-15T02:55:09.928Z,1002.76
2022-12-15T02:56:17.063Z,1002.79
2022-12-15T02:57:20.225Z,1002.82
2022-12-15T02:58:27.276Z,1002.86
2022-12-15T02:59:33.373Z,1002.89
2022-12-15T03:00:36.578Z,1002.88
2022-12-15T03:01:40.602Z,1002.85
2022-12-15T03:02:47.779Z,1002.85
2022-12-15T03:03:58.058Z,1002.84
2022-12-15T03:05:03.552Z,1002.87
2022-12-15T03:06:06.721Z,1002.86
2022-12-15T03:07:13.902Z,1002.88
2022-12-15T03:08:17.013Z,1002.87
2022-12-15T03:09:24.121Z,1002.87
2022-12-15T03:10:27.282Z,1002.85
2022-12-15T03:11:32.252Z,1002.80
2022-12-15T03:12:36.046Z,1002.78
2022-12-15T03:13:39.872Z,1002.73
2022-12-15T03:14:46.965Z,1002.69
2022-12-15T03:15:53.020Z,1002.71
2022-12-15T03:16:56.351Z,1002.72
2022-12-15T03:18:00.160Z,1002.73
2022-12-15T03:19:04.253Z,1002.73
2022-12-15T03:20:08.192Z,1002.73
2022-12-15T03:21:12.288Z,1002.77
2022-12-15T03:22:16.389Z,1002.81
2022-12-15T03:23:23.508Z,1002.82
2022-12-15T03:24:26.663Z,1002.84
2022-12-15T03:25:30.670Z,1002.86
2022-12-15T03:26:34.776Z,1002.88
2022-12-15T03:27:38.808Z,1002.91
2022-12-15T03:28:42.814Z,1002.89
2022-12-15T03:29:52.999Z,1002.92
2022-12-15T03:30:59.528Z,1002.94
2022-12-15T03:32:02.764Z,1002.94
2022-12-15T03:33:09.686Z,1002.94
2022-12-15T03:34:12.917Z,1002.95
2022-12-15T03:35:16.881Z,1002.94
2022-12-15T03:36:24.042Z,1002.95
2022-12-15T03:37:27.244Z,1003.00
2022-12-15T03:38:34.404Z,1003.07
2022-12-15T03:39:37.659Z,1003.05
2022-12-15T03:40:41.717Z,1003.00
2022-12-15T03:41:45.731Z,1003.01
2022-12-15T03:42:49.875Z,1003.01
2022-12-15T03:43:53.816Z,1002.96
2022-12-15T03:44:57.886Z,1002.93
2022-12-15T03:46:02.030Z,1002.90
2022-12-15T03:47:05.942Z,1002.90
2022-12-15T03:48:10.059Z,1002.87
2022-12-15T03:49:14.225Z,1002.88
2022-12-15T03:50:18.191Z,1002.89
2022-12-15T03:51:25.334Z,1002.94
2022-12-15T03:52:31.416Z,1002.94
2022-12-15T03:53:34.828Z,1002.95
2022-12-15T03:54:41.685Z,1002.98
2022-12-15T03:55:44.891Z,1002.96
2022-12-15T03:58:15.605Z,1002.92
2022-12-15T03:59:19.588Z,1002.92
2022-12-15T04:00:26.703Z,1002.87
2022-12-15T04:01:30.094Z,1002.84
2022-12-15T04:02:34.260Z,1002.83
2022-12-15T04:03:38.012Z,1002.84
2022-12-15T04:04:45.113Z,1002.85
2022-12-15T04:05:51.166Z,1002.86
2022-12-15T04:06:57.280Z,1002.93
2022-12-15T04:08:00.530Z,1002.93
2022-12-15T04:09:04.476Z,1002.89
2022-12-15T04:10:08.545Z,1002.84
2022-12-15T04:11:12.565Z,1002.83
2022-12-15T04:12:16.634Z,1002.87
2022-12-15T04:13:23.821Z,1002.96
2022-12-15T04:14:26.982Z,1003.04
2022-12-15T04:15:30.967Z,1003.07
2022-12-15T04:16:38.198Z,1003.13
2022-12-15T04:17:44.291Z,1003.12
2022-12-15T04:18:50.471Z,1003.07
2022-12-15T04:19:53.627Z,1003.05
2022-12-15T04:21:00.770Z,1003.09
2022-12-15T04:22:03.985Z,1003.08
2022-12-15T04:23:08.165Z,1003.05
2022-12-15T04:24:12.008Z,1003.02
2022-12-15T04:25:22.204Z,1003.01
2022-12-15T04:26:27.890Z,1002.98
2022-12-15T04:27:31.038Z,1003.04
2022-12-15T04:28:38.092Z,1003.11
2022-12-15T04:29:41.118Z,1003.16
2022-12-15T04:30:45.257Z,1003.22
2022-12-15T04:31:49.191Z,1003.20
2022-12-15T04:32:53.301Z,1003.19
2022-12-15T04:33:57.394Z,1003.28
2022-12-15T04:35:01.443Z,1003.28
2022-12-15T04:36:08.623Z,1003.25
2022-12-15T04:37:11.836Z,1003.25
2022-12-15T04:38:15.853Z,1003.24
2022-12-15T04:39:23.036Z,1003.23
2022-12-15T04:40:26.179Z,1003.23
2022-12-15T04:41:33.267Z,1003.22
2022-12-15T04:42:39.293Z,1003.23
2022-12-15T04:43:42.629Z,1003.21
2022-12-15T04:44:49.991Z,1003.22
2022-12-15T04:45:53.664Z,1003.21
2022-12-15T04:46:56.820Z,1003.24
2022-12-15T04:48:03.960Z,1003.29
2022-12-15T04:49:07.166Z,1003.34
2022-12-15T04:50:11.144Z,1003.36
2022-12-15T04:51:15.188Z,1003.39
2022-12-15T13:33:16.896Z,1006.26
2022-12-15T14:10:19.582Z,1006.51
2022-12-15T14:47:39.010Z,1006.73
2022-12-15T14:54:27.892Z,1006.84
2022-12-15T14:55:31.759Z,1006.87
2022-12-15T14:58:05.705Z,1006.90
2022-12-15T15:00:38.670Z,1006.91
2022-12-15T15:03:17.210Z,1006.93
2022-12-15T15:26:00.205Z,1007.07
2022-12-15T21:08:15.123Z,1009.47
2022-12-15T21:09:18.089Z,1009.47
2022-12-15T21:10:22.243Z,1009.49
2022-12-15T21:11:26.266Z,1009.51
2022-12-15T21:12:33.517Z,1009.51
2022-12-15T21:13:36.683Z,1009.52
2022-12-15T21:14:40.735Z,1009.49
2022-12-15T21:15:44.891Z,1009.51
2022-12-15T21:16:49.050Z,1009.52
2022-12-15T21:18:19.806Z,1009.52
2022-12-15T21:19:19.181Z,1009.52
2022-12-15T21:20:01.259Z,1009.49
2022-12-15T21:21:08.555Z,1009.45
2022-12-15T21:22:11.775Z,1009.44
2022-12-15T21:23:15.771Z,1009.43
2022-12-15T21:24:20.032Z,1009.44
2022-12-15T21:25:24.142Z,1009.43
2022-12-15T21:26:28.261Z,1009.46
2022-12-15T21:27:32.304Z,1009.46
2022-12-15T21:28:36.431Z,1009.45
2022-12-15T21:29:40.622Z,1009.45
2022-12-15T21:30:44.927Z,1009.43
2022-12-15T21:31:48.941Z,1009.45
2022-12-15T21:32:53.104Z,1009.45
2022-12-15T21:34:00.288Z,1009.46
2022-12-15T21:35:03.484Z,1009.45
2022-12-15T21:36:07.551Z,1009.42
2022-12-15T21:37:11.651Z,1009.40
2022-12-15T21:38:15.830Z,1009.36
2022-12-15T21:39:19.879Z,1009.33
2022-12-15T21:40:24.022Z,1009.30
2022-12-15T21:41:28.072Z,1009.29
2022-12-15T21:42:32.223Z,1009.31
2022-12-15T21:43:36.328Z,1009.30
2022-12-15T21:44:40.412Z,1009.33
2022-12-15T21:45:44.527Z,1009.32
2022-12-15T21:46:48.739Z,1009.30
2022-12-15T21:47:52.689Z,1009.31
2022-12-15T21:48:56.887Z,1009.32
2022-12-15T21:50:01.064Z,1009.34
2022-12-15T21:51:06.093Z,1009.34
2022-12-15T21:52:09.756Z,1009.33
2022-12-15T21:53:13.986Z,1009.32
2022-12-15T21:54:18.006Z,1009.34
2022-12-15T21:55:22.236Z,1009.34
2022-12-15T21:56:26.407Z,1009.33
2022-12-15T21:57:30.478Z,1009.31
2022-12-15T21:58:35.037Z,1009.32
2022-12-15T21:59:38.764Z,1009.30
2022-12-15T22:00:45.688Z,1009.30
2022-12-15T22:01:47.102Z,1009.31
2022-12-15T22:02:51.341Z,1009.33
2022-12-15T22:03:55.312Z,1009.31
2022-12-15T22:04:59.500Z,1009.34
2022-12-15T22:06:03.642Z,1009.34
2022-12-15T22:07:07.670Z,1009.37
2022-12-15T22:08:11.748Z,1009.36
2022-12-15T22:09:15.946Z,1009.33
2022-12-15T22:10:20.071Z,1009.35
2022-12-15T22:11:24.114Z,1009.36
2022-12-15T22:12:28.351Z,1009.35
2022-12-15T22:13:32.407Z,1009.36
2022-12-15T22:14:36.473Z,1009.35
2022-12-15T22:15:40.799Z,1009.36
2022-12-15T22:16:44.734Z,1009.35
2022-12-15T22:17:48.893Z,1009.33
2022-12-15T22:18:53.035Z,1009.31
2022-12-15T22:20:00.172Z,1009.28
2022-12-15T22:21:03.407Z,1009.28
2022-12-15T22:22:07.542Z,1009.29
2022-12-15T22:23:11.554Z,1009.31
2022-12-15T22:24:15.763Z,1009.30
2022-12-15T22:25:19.896Z,1009.30
2022-12-15T22:26:23.959Z,1009.33
2022-12-15T22:27:28.142Z,1009.36
2022-12-15T22:28:32.621Z,1009.35
2022-12-15T22:29:36.297Z,1009.38
2022-12-15T22:30:40.530Z,1009.37
2022-12-15T22:31:44.494Z,1009.37
2022-12-15T22:32:48.649Z,1009.39
2022-12-15T22:33:53.048Z,1009.44
2022-12-15T22:34:57.070Z,1009.44
2022-12-15T22:36:01.062Z,1009.46
2022-12-15T22:37:05.314Z,1009.50
2022-12-15T22:38:09.541Z,1009.57
2022-12-15T22:39:13.513Z,1009.61
2022-12-15T22:40:17.703Z,1009.63
2022-12-15T22:41:21.868Z,1009.62
2022-12-15T22:42:25.906Z,1009.61
2022-12-15T22:43:30.108Z,1009.57
2022-12-15T22:44:34.186Z,1009.55
2022-12-15T22:45:41.230Z,1009.54
2022-12-15T22:46:42.333Z,1009.54
2022-12-15T22:47:46.489Z,1009.55
2022-12-15T22:48:50.645Z,1009.57
2022-12-15T22:49:54.701Z,1009.62
2022-12-15T22:50:58.745Z,1009.65
2022-12-15T22:52:02.943Z,1009.66
2022-12-15T22:53:07.062Z,1009.69
2022-12-15T22:54:11.203Z,1009.69
2022-12-15T22:55:15.368Z,1009.72
2022-12-15T22:56:19.516Z,1009.72
2022-12-15T22:57:23.696Z,1009.73
2022-12-15T22:58:27.825Z,1009.73
2022-12-15T22:59:32.002Z,1009.73
2022-12-15T23:00:36.169Z,1009.75
2022-12-15T23:01:40.326Z,1009.74
2022-12-15T23:02:44.432Z,1009.74
2022-12-15T23:03:48.388Z,1009.71
2022-12-15T23:04:52.593Z,1009.70
2022-12-15T23:05:56.758Z,1009.69
2022-12-15T23:07:00.913Z,1009.71
2022-12-15T23:08:05.040Z,1009.72
2022-12-15T23:09:09.142Z,1009.72
2022-12-15T23:10:13.293Z,1009.74
2022-12-15T23:11:17.459Z,1009.76
2022-12-15T23:12:21.608Z,1009.82
2022-12-15T23:13:25.653Z,1009.85
2022-12-15T23:14:29.867Z,1009.87
2022-12-15T23:15:34.092Z,1009.92
2022-12-15T23:16:38.244Z,1009.94
2022-12-15T23:17:42.242Z,1009.96
2022-12-15T23:18:46.386Z,1009.97
2022-12-15T23:19:50.513Z,1010.00
2022-12-15T23:20:54.605Z,1010.02
2022-12-15T23:21:58.723Z,1010.02
2022-12-15T23:23:03.785Z,1010.03
2022-12-15T23:24:07.522Z,1010.04
2022-12-15T23:25:11.539Z,1010.07
2022-12-15T23:26:15.553Z,1010.08
2022-12-15T23:27:19.799Z,1010.09
2022-12-15T23:28:23.802Z,1010.11
2022-12-15T23:29:27.980Z,1010.10
2022-12-15T23:30:32.102Z,1010.10
2022-12-15T23:31:36.292Z,1010.09
2022-12-15T23:32:40.334Z,1010.09
2022-12-15T23:33:44.432Z,1010.11
2022-12-15T23:34:48.575Z,1010.07
2022-12-15T23:35:52.727Z,1010.07
2022-12-15T23:36:56.884Z,1010.09
2022-12-15T23:38:01.171Z,1010.05
2022-12-15T23:39:05.282Z,1010.03
2022-12-15T23:40:09.294Z,1010.05
2022-12-15T23:41:13.459Z,1010.07
2022-12-15T23:42:17.644Z,1010.10
2022-12-15T23:43:21.783Z,1010.10
2022-12-15T23:44:25.887Z,1010.10
2022-12-15T23:45:29.942Z,1010.12
2022-12-15T23:46:34.185Z,1010.12
2022-12-15T23:47:38.157Z,1010.11
2022-12-15T23:48:42.319Z,1010.06
2022-12-15T23:49:46.389Z,1010.06
2022-12-15T23:50:50.494Z,1010.04
2022-12-15T23:51:54.601Z,1010.03
2022-12-15T23:52:58.769Z,1010.01
2022-12-15T23:54:02.933Z,1010.02
2022-12-15T23:55:07.073Z,1009.98
2022-12-15T23:56:11.259Z,1010.05
2022-12-15T23:57:15.344Z,1010.06
2022-12-15T23:58:19.433Z,1010.07
2022-12-15T23:59:23.582Z,1010.08
